createdAt,value
2019-01-21T00:00:42.773Z,16.97
2019-01-21T00:03:14.687Z,17.73
2019-01-21T00:05:43.212Z,17.23
2019-01-21T00:08:12.441Z,17.47
2019-01-21T00:10:41.698Z,16.73
2019-01-21T00:13:11.028Z,16.70
2019-01-21T00:15:40.377Z,16.73
2019-01-21T00:18:09.641Z,17.83
2019-01-21T00:20:38.917Z,17.47
2019-01-21T00:23:10.100Z,17.40
2019-01-21T00:25:39.372Z,18.63
2019-01-21T00:28:08.705Z,19.30
2019-01-21T00:30:37.973Z,17.10
2019-01-21T00:33:09.139Z,17.63
2019-01-21T00:35:38.486Z,17.20
2019-01-21T00:38:07.730Z,18.30
2019-01-21T00:40:36.995Z,17.17
2019-01-21T00:43:06.248Z,18.30
2019-01-21T00:45:35.529Z,19.23
2019-01-21T00:48:05.017Z,16.90
2019-01-21T00:50:34.526Z,17.93
2019-01-21T00:53:03.777Z,18.23
2019-01-21T00:55:33.015Z,17.37
2019-01-21T00:58:02.280Z,16.97
2019-01-21T01:00:31.536Z,18.37
2019-01-21T01:03:00.861Z,17.80
2019-01-21T01:05:30.275Z,18.83
2019-01-21T01:07:59.531Z,17.73
2019-01-21T01:10:28.780Z,17.53
2019-01-21T01:12:58.065Z,17.30
2019-01-21T01:15:27.301Z,17.73
2019-01-21T01:17:57.561Z,16.93
2019-01-21T01:20:26.806Z,17.53
2019-01-21T01:22:56.086Z,17.57
2019-01-21T01:25:25.321Z,17.57
2019-01-21T01:27:54.666Z,17.27
2019-01-21T01:30:23.919Z,16.80
2019-01-21T01:32:53.201Z,17.10
2019-01-21T01:35:22.544Z,17.23
2019-01-21T01:37:51.804Z,18.67
2019-01-21T01:40:21.252Z,16.70
2019-01-21T01:42:50.567Z,16.53
2019-01-21T01:45:21.668Z,17.13
2019-01-21T01:47:54.521Z,16.07
2019-01-21T01:50:23.851Z,15.80
2019-01-21T01:52:53.108Z,16.83
2019-01-21T01:55:24.126Z,15.97
2019-01-21T01:57:55.417Z,16.73
2019-01-21T02:00:24.759Z,16.10
2019-01-21T02:02:54.079Z,15.90
2019-01-21T02:05:24.377Z,16.50
2019-01-21T02:07:53.798Z,17.77
2019-01-21T02:10:24.088Z,17.20
2019-01-21T02:12:53.315Z,16.27
2019-01-21T02:15:22.647Z,17.30
2019-01-21T02:17:52.430Z,16.73
2019-01-21T02:20:21.811Z,17.40
2019-01-21T02:22:53.363Z,16.53
2019-01-21T02:25:25.632Z,16.87
2019-01-21T02:28:19.279Z,16.20
2019-01-21T02:31:21.193Z,17.33
2019-01-21T02:34:11.521Z,16.83
2019-01-21T02:37:05.997Z,16.30
2019-01-21T02:39:57.396Z,16.23
2019-01-21T02:42:41.239Z,15.87
2019-01-21T02:45:30.093Z,16.60
2019-01-21T02:48:09.555Z,16.13
2019-01-21T02:50:54.806Z,15.10
2019-01-21T02:53:27.225Z,14.67
2019-01-21T02:56:11.313Z,15.50
2019-01-21T02:59:00.756Z,15.33
2019-01-21T03:01:38.915Z,15.33
2019-01-21T03:04:36.768Z,15.00
2019-01-21T03:07:31.848Z,14.97
2019-01-21T03:10:25.037Z,14.33
2019-01-21T03:13:21.277Z,14.77
2019-01-21T03:16:13.155Z,14.63
2019-01-21T03:19:09.303Z,14.60
2019-01-21T03:21:47.413Z,15.00
2019-01-21T03:24:22.389Z,14.53
2019-01-21T03:26:54.827Z,15.40
2019-01-21T03:29:46.172Z,14.60
2019-01-21T03:32:35.181Z,14.73
2019-01-21T03:35:08.572Z,13.83
2019-01-21T03:37:58.033Z,14.40
2019-01-21T03:40:50.811Z,15.37
2019-01-21T03:43:28.476Z,14.67
2019-01-21T03:46:21.270Z,15.17
2019-01-21T03:48:51.892Z,14.77
2019-01-21T03:51:34.773Z,15.07
2019-01-21T03:54:07.193Z,15.27
2019-01-21T03:56:39.022Z,14.93
2019-01-21T03:59:15.160Z,14.93
2019-01-21T04:02:06.139Z,14.80
2019-01-21T04:05:13.499Z,14.97
2019-01-21T04:08:16.213Z,14.70
2019-01-21T04:10:54.418Z,14.77
2019-01-21T04:13:49.103Z,16.00
2019-01-21T04:16:51.658Z,16.10
2019-01-21T04:19:24.073Z,15.50
2019-01-21T04:22:06.693Z,15.90
2019-01-21T04:24:39.152Z,15.17
2019-01-21T04:27:17.360Z,15.40
2019-01-21T04:30:14.869Z,15.07
2019-01-21T04:33:07.866Z,15.50
2019-01-21T04:35:49.206Z,14.33
2019-01-21T04:38:33.303Z,14.23
2019-01-21T04:41:08.208Z,15.07
2019-01-21T04:43:46.632Z,15.47
2019-01-21T04:46:35.107Z,14.47
2019-01-21T04:49:11.361Z,15.43
2019-01-21T04:52:13.551Z,15.43
2019-01-21T04:55:06.597Z,15.00
2019-01-21T04:57:42.841Z,15.33
2019-01-21T05:00:26.868Z,15.57
2019-01-21T05:03:14.070Z,14.63
2019-01-21T05:05:52.385Z,14.67
2019-01-21T05:08:57.956Z,15.63
2019-01-21T05:11:30.389Z,15.23
2019-01-21T05:14:26.964Z,14.73
2019-01-21T05:17:17.321Z,14.77
2019-01-21T05:20:05.912Z,15.97
2019-01-21T05:22:41.092Z,15.53
2019-01-21T05:25:23.154Z,14.77
2019-01-21T05:28:16.307Z,15.97
2019-01-21T05:31:07.427Z,15.07
2019-01-21T05:33:55.564Z,15.10
2019-01-21T05:36:27.989Z,16.07
2019-01-21T05:39:09.248Z,15.17
2019-01-21T05:41:42.629Z,14.97
2019-01-21T05:44:21.104Z,15.70
2019-01-21T05:47:03.648Z,16.00
2019-01-21T05:49:41.998Z,15.93
2019-01-21T05:52:30.675Z,15.83
2019-01-21T05:55:15.252Z,15.57
2019-01-21T05:58:02.256Z,15.87
2019-01-21T06:01:02.066Z,15.30
2019-01-21T06:03:40.017Z,17.20
2019-01-21T06:06:28.700Z,16.23
2019-01-21T06:09:07.735Z,16.43
2019-01-21T06:12:00.887Z,15.90
2019-01-21T06:14:35.735Z,16.13
2019-01-21T06:17:08.178Z,16.97
2019-01-21T06:19:46.243Z,16.00
2019-01-21T06:22:33.305Z,16.73
2019-01-21T06:25:11.577Z,15.87
2019-01-21T06:27:50.478Z,17.10
2019-01-21T06:30:41.935Z,16.03
2019-01-21T06:33:38.706Z,15.67
2019-01-21T06:36:18.258Z,16.20
2019-01-21T06:39:23.881Z,16.57
2019-01-21T06:42:11.245Z,16.97
2019-01-21T06:45:05.867Z,16.10
2019-01-21T06:47:47.968Z,15.10
2019-01-21T06:50:41.434Z,16.27
2019-01-21T06:53:32.872Z,16.80
2019-01-21T06:56:19.888Z,15.67
2019-01-21T06:59:07.938Z,16.53
2019-01-21T07:01:41.403Z,15.60
2019-01-21T07:04:34.399Z,15.60
2019-01-21T07:07:22.810Z,16.07
2019-01-21T07:10:01.119Z,15.27
2019-01-21T07:12:46.102Z,14.87
2019-01-21T07:15:41.132Z,16.47
2019-01-21T07:18:28.093Z,15.60
2019-01-21T07:21:00.514Z,16.10
2019-01-21T07:23:39.024Z,16.07
2019-01-21T07:26:23.095Z,16.23
2019-01-21T07:28:58.271Z,15.87
2019-01-21T07:31:40.446Z,15.63
2019-01-21T07:34:35.101Z,15.87
2019-01-21T07:37:16.238Z,16.00
2019-01-21T07:40:01.644Z,15.23
2019-01-21T07:42:38.591Z,15.97
2019-01-21T07:45:33.979Z,14.73
2019-01-21T07:48:21.352Z,14.93
2019-01-21T07:51:16.941Z,15.70
2019-01-21T07:53:54.946Z,15.23
2019-01-21T07:56:41.220Z,15.10
2019-01-21T07:59:28.484Z,16.37
2019-01-21T08:02:17.052Z,14.37
2019-01-21T08:04:50.451Z,16.60
2019-01-21T08:07:25.575Z,15.17
2019-01-21T08:10:14.105Z,15.00
2019-01-21T08:12:59.285Z,15.37
2019-01-21T08:15:40.478Z,14.47
2019-01-21T08:18:12.935Z,15.17
2019-01-21T08:20:45.350Z,16.37
2019-01-21T08:23:38.178Z,15.07
2019-01-21T08:26:22.262Z,15.80
2019-01-21T08:29:13.676Z,15.10
2019-01-21T08:31:49.898Z,14.37
2019-01-21T08:34:37.985Z,15.43
2019-01-21T08:37:25.130Z,15.67
2019-01-21T08:40:08.458Z,15.07
2019-01-21T08:42:46.739Z,15.53
2019-01-21T08:45:21.974Z,15.10
2019-01-21T08:48:06.082Z,14.97
2019-01-21T08:50:41.169Z,15.43
2019-01-21T08:53:13.590Z,15.53
2019-01-21T08:55:49.057Z,14.93
2019-01-21T08:58:39.301Z,14.20
2019-01-21T09:01:23.327Z,14.77
2019-01-21T09:04:08.372Z,15.67
2019-01-21T09:06:49.313Z,14.90
2019-01-21T09:09:21.736Z,14.77
2019-01-21T09:12:09.766Z,14.40
2019-01-21T09:14:42.186Z,14.63
2019-01-21T09:17:26.290Z,14.20
2019-01-21T09:20:10.471Z,14.93
2019-01-21T09:22:50.460Z,14.87
2019-01-21T09:25:29.707Z,15.07
2019-01-21T09:28:15.027Z,15.27
2019-01-21T09:31:04.801Z,16.07
2019-01-21T09:33:42.873Z,15.60
2019-01-21T09:36:22.926Z,15.20
2019-01-21T09:38:58.178Z,16.23
2019-01-21T09:41:33.128Z,15.23
2019-01-21T09:44:08.064Z,16.00
2019-01-21T09:46:46.693Z,15.53
2019-01-21T09:49:14.905Z,15.97
2019-01-21T09:51:46.182Z,15.53
2019-01-21T09:54:15.723Z,16.07
2019-01-21T09:56:48.196Z,15.50
2019-01-21T09:59:17.454Z,16.90
2019-01-21T10:01:47.049Z,16.77
2019-01-21T10:04:19.501Z,16.57
2019-01-21T10:06:52.916Z,16.47
2019-01-21T10:09:31.143Z,17.27
2019-01-21T10:12:22.779Z,16.57
2019-01-21T10:15:14.140Z,17.47
2019-01-21T10:17:59.805Z,17.00
2019-01-21T10:20:57.296Z,17.67
2019-01-21T10:23:32.402Z,18.43
2019-01-21T10:26:10.500Z,18.70
2019-01-21T10:28:45.406Z,19.67
2019-01-21T10:31:42.447Z,20.13
2019-01-21T10:34:31.079Z,18.63
2019-01-21T10:37:30.425Z,19.40
2019-01-21T10:40:20.776Z,19.80
2019-01-21T10:43:01.486Z,19.13
2019-01-21T10:45:42.160Z,19.40
2019-01-21T10:48:20.166Z,20.93
2019-01-21T10:50:59.291Z,19.70
2019-01-21T10:53:36.453Z,20.77
2019-01-21T10:56:19.396Z,20.10
2019-01-21T10:58:51.852Z,21.20
2019-01-21T11:01:36.189Z,20.53
2019-01-21T11:04:20.113Z,21.67
2019-01-21T11:07:14.370Z,20.77
2019-01-21T11:10:01.682Z,21.67
2019-01-21T11:12:46.548Z,21.60
2019-01-21T11:15:26.512Z,22.50
2019-01-21T11:18:04.729Z,21.97
2019-01-21T11:20:57.866Z,21.80
2019-01-21T11:23:34.024Z,22.20
2019-01-21T11:26:40.096Z,21.07
2019-01-21T11:29:41.937Z,21.90
2019-01-21T11:32:26.974Z,22.90
2019-01-21T11:35:09.867Z,20.87
2019-01-21T11:37:52.138Z,20.93
2019-01-21T11:40:31.337Z,22.23
2019-01-21T11:43:14.435Z,21.57
2019-01-21T11:45:56.362Z,22.97
2019-01-21T11:48:46.719Z,21.33
2019-01-21T11:51:42.755Z,22.47
2019-01-21T11:54:21.077Z,20.70
2019-01-21T11:57:04.425Z,21.37
2019-01-21T11:59:45.515Z,21.83
2019-01-21T12:02:26.785Z,22.27
2019-01-21T12:05:01.127Z,21.50
2019-01-21T12:07:53.842Z,21.47
2019-01-21T12:10:32.617Z,22.13
2019-01-21T12:13:21.273Z,21.67
2019-01-21T12:16:24.985Z,22.30
2019-01-21T12:19:01.109Z,22.00
2019-01-21T12:21:39.118Z,22.97
2019-01-21T12:24:12.683Z,22.87
2019-01-21T12:27:03.723Z,21.93
2019-01-21T12:29:44.992Z,21.43
2019-01-21T12:32:40.076Z,22.43
2019-01-21T12:35:24.404Z,22.37
2019-01-21T12:37:56.829Z,21.73
2019-01-21T12:40:29.304Z,22.57
2019-01-21T12:43:20.817Z,22.37
2019-01-21T12:46:01.855Z,24.47
2019-01-21T12:48:34.335Z,23.50
2019-01-21T12:51:18.890Z,22.87
2019-01-21T12:54:01.226Z,23.43
2019-01-21T12:56:48.452Z,25.50
2019-01-21T12:59:53.453Z,23.87
2019-01-21T13:02:32.453Z,25.27
2019-01-21T13:05:07.539Z,23.60
2019-01-21T13:07:45.853Z,23.73
2019-01-21T13:10:27.201Z,23.80
2019-01-21T13:13:21.706Z,24.13
2019-01-21T13:16:00.632Z,23.10
2019-01-21T13:18:45.902Z,23.60
2019-01-21T13:21:40.533Z,23.17
2019-01-21T13:24:15.535Z,22.80
2019-01-21T13:26:52.049Z,23.97
2019-01-21T13:29:24.485Z,23.50
2019-01-21T13:32:12.232Z,23.47
2019-01-21T13:34:44.707Z,23.83
2019-01-21T13:37:33.428Z,24.43
2019-01-21T13:40:28.520Z,24.10
2019-01-21T13:43:19.212Z,23.90
2019-01-21T13:46:14.066Z,23.37
2019-01-21T13:48:49.528Z,22.90
2019-01-21T13:51:30.590Z,22.20
2019-01-21T13:54:31.834Z,23.30
2019-01-21T13:57:19.117Z,22.60
2019-01-21T14:00:07.273Z,23.33
2019-01-21T14:02:39.681Z,21.83
2019-01-21T14:05:19.142Z,22.93
2019-01-21T14:08:04.247Z,23.03
2019-01-21T14:10:48.450Z,22.20
2019-01-21T14:13:27.761Z,21.83
2019-01-21T14:16:05.735Z,21.83
2019-01-21T14:18:43.056Z,21.03
2019-01-21T14:21:18.138Z,20.67
2019-01-21T14:24:02.568Z,20.40
2019-01-21T14:26:38.947Z,20.73
2019-01-21T14:29:11.360Z,22.53
2019-01-21T14:32:08.395Z,22.97
2019-01-21T14:34:40.828Z,21.87
2019-01-21T14:37:37.026Z,22.50
2019-01-21T14:40:26.405Z,22.50
2019-01-21T14:43:14.780Z,21.97
2019-01-21T14:46:10.286Z,22.73
2019-01-21T14:49:04.458Z,21.13
2019-01-21T14:51:35.738Z,20.93
2019-01-21T14:54:36.529Z,22.37
2019-01-21T14:57:29.957Z,22.47
2019-01-21T15:00:15.351Z,22.57
2019-01-21T15:02:53.597Z,21.63
2019-01-21T15:05:35.189Z,22.07
2019-01-21T15:08:07.775Z,23.53
2019-01-21T15:10:52.083Z,23.13
2019-01-21T15:13:44.260Z,23.03
2019-01-21T15:16:16.673Z,23.33
2019-01-21T15:18:57.628Z,23.70
2019-01-21T15:21:44.230Z,23.80
2019-01-21T15:24:29.649Z,25.40
2019-01-21T15:27:22.260Z,23.60
2019-01-21T15:29:55.687Z,24.33
2019-01-21T15:32:39.952Z,23.50
2019-01-21T15:35:20.652Z,23.83
2019-01-21T15:38:06.003Z,24.03
2019-01-21T15:41:03.236Z,24.53
2019-01-21T15:43:35.639Z,23.43
2019-01-21T15:46:17.158Z,23.47
2019-01-21T15:48:53.581Z,23.97
2019-01-21T15:51:29.835Z,23.83
2019-01-21T15:54:17.947Z,23.77
2019-01-21T15:56:57.132Z,23.90
2019-01-21T15:59:35.095Z,24.43
2019-01-21T16:02:10.026Z,24.10
2019-01-21T16:04:46.206Z,24.60
2019-01-21T16:07:21.329Z,24.03
2019-01-21T16:10:00.743Z,24.00
2019-01-21T16:12:35.909Z,23.60
2019-01-21T16:15:33.704Z,25.33
2019-01-21T16:18:22.474Z,23.93
2019-01-21T16:21:13.721Z,24.87
2019-01-21T16:24:01.756Z,23.47
2019-01-21T16:26:34.190Z,23.43
2019-01-21T16:29:09.398Z,24.47
2019-01-21T16:31:39.396Z,24.03
2019-01-21T16:34:32.189Z,24.33
2019-01-21T16:37:11.750Z,24.20
2019-01-21T16:40:10.870Z,23.13
2019-01-21T16:42:41.053Z,24.20
2019-01-21T16:45:10.291Z,25.07
2019-01-21T16:47:39.542Z,24.97
2019-01-21T16:50:08.866Z,24.43
2019-01-21T16:52:38.139Z,25.33
2019-01-21T16:55:08.531Z,24.33
2019-01-21T16:57:37.789Z,25.33
2019-01-21T17:00:10.409Z,25.73
2019-01-21T17:02:39.680Z,25.03
2019-01-21T17:05:11.472Z,24.33
2019-01-21T17:07:41.815Z,24.57
2019-01-21T17:10:14.789Z,25.00
2019-01-21T17:12:44.053Z,24.63
2019-01-21T17:15:13.970Z,24.40
2019-01-21T17:17:44.360Z,25.00
2019-01-21T17:20:17.107Z,25.97
2019-01-21T17:22:47.409Z,24.70
2019-01-21T17:25:16.810Z,25.53
2019-01-21T17:27:46.064Z,24.80
2019-01-21T17:30:17.153Z,26.07
2019-01-21T17:32:46.396Z,25.67
2019-01-21T17:35:15.745Z,24.80
2019-01-21T17:37:44.996Z,25.50
2019-01-21T17:40:17.830Z,26.20
2019-01-21T17:42:47.146Z,25.40
2019-01-21T17:45:18.835Z,27.03
2019-01-21T17:47:48.150Z,25.63
2019-01-21T17:50:18.723Z,25.43
2019-01-21T17:52:47.976Z,25.93
2019-01-21T17:55:17.287Z,25.07
2019-01-21T17:57:46.658Z,24.83
2019-01-21T18:00:21.393Z,25.87
2019-01-21T18:02:50.653Z,25.07
2019-01-21T18:05:19.908Z,25.47
2019-01-21T18:07:49.150Z,26.33
2019-01-21T18:10:19.079Z,26.67
2019-01-21T18:12:48.403Z,26.97
2019-01-21T18:15:17.801Z,27.60
2019-01-21T18:17:48.254Z,27.03
2019-01-21T18:20:19.891Z,27.23
2019-01-21T18:22:50.152Z,27.00
2019-01-21T18:25:19.398Z,25.60
2019-01-21T18:27:49.704Z,26.53
2019-01-21T18:30:23.020Z,25.77
2019-01-21T18:32:52.420Z,26.80
2019-01-21T18:35:21.676Z,27.03
2019-01-21T18:37:52.931Z,25.77
2019-01-21T18:40:22.323Z,27.03
2019-01-21T18:42:51.643Z,27.70
2019-01-21T18:45:25.084Z,27.60
2019-01-21T18:47:54.427Z,28.37
2019-01-21T18:50:23.680Z,28.20
2019-01-21T18:52:53.379Z,28.70
2019-01-21T18:55:22.702Z,28.47
2019-01-21T18:57:55.865Z,27.17
2019-01-21T19:00:24.166Z,26.23
2019-01-21T19:02:54.360Z,26.83
2019-01-21T19:05:24.671Z,26.87
2019-01-21T19:07:58.948Z,26.63
2019-01-21T19:10:28.208Z,27.63
2019-01-21T19:12:57.465Z,27.27
2019-01-21T19:15:29.144Z,27.80
2019-01-21T19:17:58.427Z,26.43
2019-01-21T19:20:27.926Z,27.83
2019-01-21T19:22:57.201Z,28.10
2019-01-21T19:25:26.454Z,27.77
2019-01-21T19:27:55.699Z,28.07
2019-01-21T19:30:27.026Z,27.97
2019-01-21T19:32:56.438Z,28.10
2019-01-21T19:35:28.434Z,27.97
2019-01-21T19:37:57.672Z,28.93
2019-01-21T19:40:27.921Z,28.27
2019-01-21T19:42:58.166Z,28.10
2019-01-21T19:45:27.493Z,28.70
2019-01-21T19:47:56.717Z,27.97
2019-01-21T19:50:27.949Z,27.33
2019-01-21T19:52:57.262Z,28.63
2019-01-21T19:55:30.463Z,28.73
2019-01-21T19:57:59.692Z,28.33
2019-01-21T20:00:30.032Z,28.33
2019-01-21T20:02:59.273Z,28.53
2019-01-21T20:05:28.539Z,29.13
2019-01-21T20:07:57.803Z,29.17
2019-01-21T20:10:27.055Z,28.93
2019-01-21T20:12:56.318Z,28.60
2019-01-21T20:15:25.563Z,29.80
2019-01-21T20:17:54.858Z,29.47
2019-01-21T20:20:30.987Z,28.93
2019-01-21T20:23:00.395Z,29.67
2019-01-21T20:25:29.694Z,28.77
2019-01-21T20:27:58.950Z,30.37
2019-01-21T20:30:28.199Z,29.37
2019-01-21T20:32:58.572Z,28.33
2019-01-21T20:35:27.846Z,28.13
2019-01-21T20:37:57.116Z,29.40
2019-01-21T20:40:28.493Z,28.47
2019-01-21T20:42:58.768Z,27.93
2019-01-21T20:45:28.044Z,28.97
2019-01-21T20:47:57.402Z,28.50
2019-01-21T20:50:29.192Z,27.57
2019-01-21T20:52:58.516Z,26.80
2019-01-21T20:55:27.948Z,28.97
2019-01-21T20:57:57.228Z,27.97
2019-01-21T21:00:30.476Z,28.57
2019-01-21T21:02:59.922Z,27.63
2019-01-21T21:05:29.298Z,29.00
2019-01-21T21:07:58.560Z,28.47
2019-01-21T21:10:28.775Z,27.67
2019-01-21T21:13:04.892Z,27.80
2019-01-21T21:15:36.071Z,27.47
2019-01-21T21:18:05.399Z,26.90
2019-01-21T21:20:34.669Z,27.43
2019-01-21T21:23:03.923Z,25.93
2019-01-21T21:25:33.198Z,27.17
2019-01-21T21:28:02.489Z,26.80
2019-01-21T21:30:32.381Z,28.17
2019-01-21T21:33:01.651Z,26.40
2019-01-21T21:35:30.921Z,27.03
2019-01-21T21:38:00.184Z,26.23
2019-01-21T21:40:29.433Z,26.53
2019-01-21T21:42:58.709Z,27.30
2019-01-21T21:45:28.079Z,26.13
2019-01-21T21:48:01.107Z,24.67
2019-01-21T21:50:30.986Z,24.53
2019-01-21T21:53:00.263Z,25.87
2019-01-21T21:55:29.748Z,25.07
2019-01-21T21:57:59.058Z,24.83
2019-01-21T22:00:28.956Z,25.30
2019-01-21T22:02:58.232Z,24.90
2019-01-21T22:05:27.672Z,25.57
2019-01-21T22:07:56.983Z,24.13
2019-01-21T22:10:27.314Z,25.13
2019-01-21T22:12:56.650Z,26.07
2019-01-21T22:15:26.178Z,25.47
2019-01-21T22:17:55.455Z,25.33
2019-01-21T22:20:25.148Z,25.50
2019-01-21T22:22:54.407Z,24.77
2019-01-21T22:25:23.681Z,25.20
2019-01-21T22:27:52.941Z,25.27
2019-01-21T22:30:24.165Z,24.57
2019-01-21T22:32:53.425Z,25.73
2019-01-21T22:35:22.780Z,23.47
2019-01-21T22:37:52.110Z,24.73
2019-01-21T22:40:22.206Z,24.50
2019-01-21T22:42:51.473Z,24.57
2019-01-21T22:45:21.720Z,26.37
2019-01-21T22:47:50.988Z,24.87
2019-01-21T22:50:20.458Z,25.20
2019-01-21T22:52:49.724Z,25.40
2019-01-21T22:55:19.072Z,24.90
2019-01-21T22:57:48.589Z,24.47
2019-01-21T23:00:27.493Z,24.87
2019-01-21T23:02:56.832Z,24.70
2019-01-21T23:05:26.107Z,23.80
2019-01-21T23:07:55.360Z,23.53
2019-01-21T23:10:24.623Z,24.33
2019-01-21T23:12:54.042Z,23.43
2019-01-21T23:15:25.242Z,24.00
2019-01-21T23:17:54.487Z,23.97
2019-01-21T23:20:24.732Z,24.50
2019-01-21T23:22:54.878Z,23.83
2019-01-21T23:25:24.559Z,22.90
2019-01-21T23:27:53.817Z,23.53
2019-01-21T23:30:23.928Z,24.43
2019-01-21T23:32:53.179Z,23.93
2019-01-21T23:35:22.431Z,24.13
2019-01-21T23:37:51.969Z,24.37
2019-01-21T23:40:21.222Z,24.50
2019-01-21T23:42:50.473Z,24.80
2019-01-21T23:45:19.707Z,24.73
2019-01-21T23:47:49.052Z,23.83
2019-01-21T23:50:18.301Z,23.27
2019-01-21T23:52:47.574Z,24.90
2019-01-21T23:55:16.819Z,23.83
2019-01-21T23:57:46.082Z,24.03
